Time;durP1;ratioP1;P1;durP2;ratioP2;P2;SDS_P1;SDS_P2;PMS_P1;PMS_P2;Temp;Humidity;BMP_temperature;BMP_pressure;BME280_temperature;BME280_humidity;BME280_pressure;Samples;Min_cycle;Max_cycle;Signal;HPM_P1;HPM_P2
2024/02/05 00:00:38;;;;;;;2.83;1.75;;;16.10;61.70;;;;;;5052076;28;20171;-73
2024/02/05 00:03:04;;;;;;;4.65;1.75;;;16.10;61.60;;;;;;5052523;28;20171;-74
2024/02/05 00:05:30;;;;;;;3.83;1.95;;;16.10;61.70;;;;;;5051489;28;20258;-74
2024/02/05 00:07:55;;;;;;;4.63;1.63;;;16.10;61.60;;;;;;5052599;28;20170;-75
2024/02/05 00:10:21;;;;;;;5.47;1.77;;;16.10;61.70;;;;;;5052080;28;20823;-75
2024/02/05 00:12:48;;;;;;;5.55;1.77;;;16.10;61.70;;;;;;5051470;28;20621;-74
2024/02/05 00:15:13;;;;;;;3.15;1.90;;;16.10;61.70;;;;;;5052222;28;20198;-73
2024/02/05 00:17:39;;;;;;;7.45;2.30;;;16.10;61.60;;;;;;5051108;28;20650;-73
2024/02/05 00:20:05;;;;;;;5.43;2.05;;;16.10;61.70;;;;;;5052154;28;20175;-73
2024/02/05 00:22:31;;;;;;;4.90;2.00;;;16.00;61.70;;;;;;5051895;28;20184;-75
2024/02/05 00:24:56;;;;;;;6.35;2.05;;;16.10;61.70;;;;;;5051486;28;20176;-76
2024/02/05 00:27:22;;;;;;;4.72;2.05;;;16.10;61.70;;;;;;5051831;28;20199;-73
2024/02/05 00:29:48;;;;;;;4.22;2.00;;;16.00;61.60;;;;;;5052060;28;20583;-73
2024/02/05 00:32:13;;;;;;;5.30;2.10;;;16.00;61.60;;;;;;5051353;28;20242;-73
2024/02/05 00:34:39;;;;;;;5.25;2.17;;;16.00;61.60;;;;;;5051857;28;20175;-73
2024/02/05 00:37:04;;;;;;;7.50;2.38;;;16.00;61.60;;;;;;5052168;28;20179;-73
2024/02/05 00:39:30;;;;;;;6.10;2.13;;;16.00;61.60;;;;;;5050896;28;20208;-72
2024/02/05 00:41:55;;;;;;;6.45;2.35;;;16.00;61.60;;;;;;5051914;28;20175;-73
2024/02/05 00:44:21;;;;;;;5.55;2.25;;;16.00;61.60;;;;;;5051483;28;20210;-72
2024/02/05 00:46:48;;;;;;;5.13;2.38;;;16.00;61.60;;;;;;5051380;28;20646;-73
2024/02/05 00:49:14;;;;;;;4.13;2.35;;;16.00;61.70;;;;;;5051859;28;20638;-73
2024/02/05 00:51:39;;;;;;;4.70;2.22;;;16.00;61.60;;;;;;5051267;28;20210;-73
2024/02/05 00:54:08;;;;;;;4.45;2.40;;;16.00;61.70;;;;;;5051212;28;20175;-75
2024/02/05 00:56:33;;;;;;;4.25;1.80;;;16.00;61.60;;;;;;5051258;28;20298;-73
2024/02/05 00:59:00;;;;;;;4.57;2.33;;;16.00;61.70;;;;;;5051683;28;20612;-73
2024/02/05 01:01:25;;;;;;;6.38;2.33;;;16.00;61.60;;;;;;5050992;28;20179;-73
2024/02/05 01:03:51;;;;;;;5.15;2.15;;;16.00;61.70;;;;;;5051832;28;20171;-73
2024/02/05 01:06:16;;;;;;;5.90;2.50;;;16.00;61.70;;;;;;5052897;28;20175;-74
2024/02/05 01:08:42;;;;;;;5.15;2.38;;;15.90;61.60;;;;;;5054984;28;20312;-75
2024/02/05 01:11:07;;;;;;;7.13;2.78;;;15.90;61.60;;;;;;5055509;28;20171;-75
2024/02/05 01:13:33;;;;;;;7.35;2.25;;;16.00;61.60;;;;;;5055179;28;20179;-73
2024/02/05 01:15:59;;;;;;;5.10;2.20;;;16.00;61.70;;;;;;5055047;28;20175;-73
2024/02/05 01:18:25;;;;;;;5.00;2.17;;;16.00;61.70;;;;;;5055266;28;20182;-72
2024/02/05 01:20:50;;;;;;;6.50;2.97;;;15.90;61.60;;;;;;5054811;28;20547;-74
2024/02/05 01:23:16;;;;;;;5.70;1.92;;;15.90;61.60;;;;;;5055271;28;20224;-74
2024/02/05 01:25:43;;;;;;;6.47;2.55;;;15.90;61.60;;;;;;5055288;28;20183;-74
2024/02/05 01:28:09;;;;;;;8.27;2.67;;;15.90;61.60;;;;;;5054457;28;20677;-73
2024/02/05 01:30:34;;;;;;;4.50;2.70;;;15.90;61.60;;;;;;5054898;28;20183;-72
2024/02/05 01:33:00;;;;;;;5.10;2.13;;;15.90;61.60;;;;;;5055045;28;20791;-73
2024/02/05 01:35:26;;;;;;;5.47;2.45;;;15.90;61.60;;;;;;5054128;28;20187;-72
2024/02/05 01:37:51;;;;;;;8.10;2.83;;;15.90;61.60;;;;;;5055147;28;20181;-73
2024/02/05 01:40:17;;;;;;;4.97;2.28;;;15.90;61.60;;;;;;5054984;28;20167;-73
2024/02/05 01:42:43;;;;;;;7.57;2.67;;;15.90;61.60;;;;;;5054256;28;20175;-73
2024/02/05 01:45:09;;;;;;;5.57;2.60;;;15.90;61.60;;;;;;5055162;28;20258;-73
2024/02/05 01:47:35;;;;;;;7.90;2.83;;;15.90;61.60;;;;;;5054871;28;20262;-72
2024/02/05 01:50:02;;;;;;;5.45;2.30;;;15.90;61.60;;;;;;5054234;28;20182;-73
2024/02/05 01:52:28;;;;;;;5.00;2.70;;;15.90;61.60;;;;;;5053305;28;20224;-73
2024/02/05 01:54:53;;;;;;;5.82;2.42;;;15.90;61.60;;;;;;5054861;28;20246;-74
2024/02/05 01:57:19;;;;;;;5.43;2.30;;;15.90;61.60;;;;;;5053359;28;20324;-73
2024/02/05 01:59:44;;;;;;;8.73;2.75;;;15.90;61.60;;;;;;5053741;28;20690;-73
2024/02/05 02:02:10;;;;;;;5.50;2.60;;;15.90;61.60;;;;;;5054845;28;20703;-73
2024/02/05 02:04:35;;;;;;;6.70;2.92;;;15.90;61.60;;;;;;5052475;28;20182;-73
2024/02/05 02:07:03;;;;;;;5.57;2.67;;;15.80;61.50;;;;;;5053488;28;20540;-75
2024/02/05 02:09:29;;;;;;;5.25;2.33;;;15.90;61.60;;;;;;5054262;28;20175;-73
2024/02/05 02:11:55;;;;;;;6.47;3.13;;;15.90;61.60;;;;;;5052500;28;20252;-74
2024/02/05 02:14:20;;;;;;;6.05;2.38;;;15.90;61.60;;;;;;5053195;28;20529;-73
2024/02/05 02:16:49;;;;;;;5.05;2.65;;;15.90;61.60;;;;;;5054376;28;20183;-73
2024/02/05 02:19:32;;;;;;;4.70;2.45;;;15.90;61.60;;;;;;5052557;28;20171;-74
2024/02/05 02:22:06;;;;;;;7.25;2.67;;;15.90;61.60;;;;;;5053100;28;20175;-73
2024/02/05 02:24:33;;;;;;;5.43;2.60;;;15.90;61.50;;;;;;5052080;28;20538;-74
2024/02/05 02:26:58;;;;;;;7.15;2.65;;;15.90;61.60;;;;;;5053066;28;20216;-74
2024/02/05 02:29:24;;;;;;;5.00;2.17;;;15.90;61.60;;;;;;5053971;28;20645;-73
2024/02/05 02:31:51;;;;;;;9.60;3.30;;;15.80;61.50;;;;;;5053595;28;20732;-72
2024/02/05 02:34:20;;;;;;;6.25;2.70;;;15.90;61.60;;;;;;5053890;28;20546;-72
2024/02/05 02:36:55;;;;;;;5.18;2.53;;;15.90;61.60;;;;;;5052811;28;20175;-73
2024/02/05 02:39:23;;;;;;;5.70;2.67;;;15.80;61.50;;;;;;5051962;28;20174;-72
2024/02/05 02:41:48;;;;;;;6.07;2.58;;;15.90;61.60;;;;;;5053892;28;20182;-73
2024/02/05 02:44:14;;;;;;;7.25;2.63;;;15.80;61.50;;;;;;5052646;28;20175;-73
2024/02/05 02:46:40;;;;;;;6.13;2.42;;;15.80;61.50;;;;;;5051727;28;20179;-73
2024/02/05 02:49:06;;;;;;;7.07;2.65;;;15.80;61.50;;;;;;5052632;28;20178;-74
2024/02/05 02:51:31;;;;;;;6.38;2.80;;;15.80;61.50;;;;;;5053209;28;20199;-73
2024/02/05 02:53:57;;;;;;;5.93;2.40;;;15.80;61.50;;;;;;5053183;28;20185;-73
2024/02/05 02:56:22;;;;;;;7.43;3.33;;;15.80;61.50;;;;;;5053285;28;20175;-73
2024/02/05 02:58:48;;;;;;;7.40;2.65;;;15.80;61.60;;;;;;5053803;28;20183;-73
2024/02/05 03:01:13;;;;;;;7.65;2.72;;;15.80;61.50;;;;;;5052925;28;20539;-73
2024/02/05 03:03:39;;;;;;;7.50;3.17;;;15.80;61.50;;;;;;5053277;28;20183;-72
2024/02/05 03:06:04;;;;;;;7.05;2.92;;;15.80;61.50;;;;;;5053367;28;20171;-73
2024/02/05 03:08:30;;;;;;;7.30;2.33;;;15.80;61.60;;;;;;5052643;28;20182;-75
2024/02/05 03:10:55;;;;;;;6.47;2.63;;;15.80;61.60;;;;;;5053525;28;20221;-76
2024/02/05 03:13:21;;;;;;;8.13;3.03;;;15.80;61.50;;;;;;5052192;28;20696;-73
2024/02/05 03:15:46;;;;;;;8.65;2.97;;;15.70;61.50;;;;;;5053306;28;20191;-73
2024/02/05 03:18:13;;;;;;;7.35;2.72;;;15.80;61.50;;;;;;5053215;28;20175;-73
2024/02/05 03:20:40;;;;;;;7.97;3.28;;;15.70;61.50;;;;;;5052049;28;20709;-73
2024/02/05 03:23:08;;;;;;;8.68;2.33;;;15.80;61.50;;;;;;5053306;28;20183;-76
2024/02/05 03:25:33;;;;;;;8.25;2.80;;;15.80;61.50;;;;;;5052755;28;20182;-73
2024/02/05 03:28:02;;;;;;;6.07;2.88;;;15.70;61.50;;;;;;5052409;28;20167;-74
2024/02/05 03:30:29;;;;;;;5.78;2.60;;;15.80;61.50;;;;;;5052267;28;20182;-72
2024/02/05 03:32:55;;;;;;;7.88;2.85;;;15.70;61.50;;;;;;5052824;28;20230;-73
2024/02/05 03:35:20;;;;;;;7.25;2.97;;;15.70;61.50;;;;;;5051836;28;20214;-71
2024/02/05 03:37:47;;;;;;;9.38;3.45;;;15.70;61.50;;;;;;5052727;28;20183;-72
2024/02/05 03:40:12;;;;;;;7.47;3.22;;;15.70;61.50;;;;;;5052895;28;20221;-73
2024/02/05 03:42:38;;;;;;;7.90;3.65;;;15.70;61.50;;;;;;5051871;28;20179;-73
2024/02/05 03:45:04;;;;;;;9.35;3.67;;;15.70;61.50;;;;;;5052722;28;20171;-73
2024/02/05 03:47:30;;;;;;;8.95;3.40;;;15.70;61.60;;;;;;5052356;28;20269;-73
2024/02/05 03:49:56;;;;;;;8.30;3.30;;;15.70;61.50;;;;;;5051830;28;20179;-73
2024/02/05 03:52:21;;;;;;;9.05;3.00;;;15.70;61.50;;;;;;5052339;28;20218;-73
2024/02/05 03:54:47;;;;;;;8.70;3.97;;;15.70;61.60;;;;;;5052682;28;20178;-73
2024/02/05 03:57:13;;;;;;;7.38;3.25;;;15.70;61.60;;;;;;5051151;28;20231;-73
2024/02/05 03:59:39;;;;;;;8.82;3.35;;;15.70;61.50;;;;;;5051467;28;20190;-72
2024/02/05 04:02:04;;;;;;;6.13;3.03;;;15.70;61.50;;;;;;5051680;28;20249;-73
2024/02/05 04:04:30;;;;;;;9.07;3.00;;;15.70;61.50;;;;;;5050511;28;20655;-73
2024/02/05 04:06:56;;;;;;;6.68;3.13;;;15.70;61.50;;;;;;5051614;28;20256;-76
2024/02/05 04:09:21;;;;;;;8.77;3.40;;;15.70;61.50;;;;;;5051373;28;20262;-73
2024/02/05 04:11:47;;;;;;;7.75;3.50;;;15.70;61.50;;;;;;5050824;28;20239;-73
2024/02/05 04:14:12;;;;;;;7.90;3.38;;;15.70;61.50;;;;;;5051591;28;20175;-73
2024/02/05 04:16:38;;;;;;;6.00;3.10;;;15.70;61.50;;;;;;5050487;28;20558;-73
2024/02/05 04:19:03;;;;;;;9.68;3.42;;;15.70;61.50;;;;;;5051453;28;20716;-75
2024/02/05 04:21:29;;;;;;;8.60;3.50;;;15.70;61.50;;;;;;5051434;28;20536;-73
2024/02/05 04:23:54;;;;;;;5.22;2.58;;;15.70;61.50;;;;;;5050811;28;21046;-74
2024/02/05 04:26:20;;;;;;;8.18;3.90;;;15.60;61.40;;;;;;5050942;28;20261;-72
2024/02/05 04:28:49;;;;;;;6.53;3.22;;;15.70;61.60;;;;;;5051420;28;20175;-72
2024/02/05 04:31:15;;;;;;;8.68;3.80;;;15.60;61.50;;;;;;5050504;28;20701;-72
2024/02/05 04:33:44;;;;;;;5.97;3.42;;;15.70;61.50;;;;;;5051198;28;20270;-71
2024/02/05 04:36:12;;;;;;;9.35;3.15;;;15.70;61.50;;;;;;5051272;28;20171;-73
2024/02/05 04:38:38;;;;;;;7.97;3.42;;;15.60;61.40;;;;;;5050498;28;20241;-72
2024/02/05 04:41:04;;;;;;;6.45;2.70;;;15.60;61.40;;;;;;5049975;28;20172;-73
2024/02/05 04:43:29;;;;;;;5.13;2.92;;;15.60;61.40;;;;;;5050791;28;20178;-71
2024/02/05 04:45:55;;;;;;;6.93;2.78;;;15.70;61.50;;;;;;5050368;28;20905;-73
2024/02/05 04:48:21;;;;;;;6.57;2.83;;;15.60;61.40;;;;;;5050625;28;20545;-72
2024/02/05 04:50:47;;;;;;;7.35;3.13;;;15.60;61.40;;;;;;5051091;28;20187;-73
2024/02/05 04:53:13;;;;;;;6.80;3.08;;;15.70;61.60;;;;;;5050243;28;20222;-74
2024/02/05 04:55:41;;;;;;;8.25;3.28;;;15.60;61.40;;;;;;5050731;28;20174;-73
2024/02/05 04:58:10;;;;;;;8.18;3.00;;;15.60;61.50;;;;;;5013674;28;1049898;-73
2024/02/05 05:00:36;;;;;;;9.15;3.72;;;15.60;61.40;;;;;;5050613;28;20670;-73
2024/02/05 05:03:02;;;;;;;9.52;3.28;;;15.60;61.40;;;;;;5051865;28;20203;-73
2024/02/05 05:05:28;;;;;;;7.97;3.00;;;15.60;61.40;;;;;;5051539;28;20183;-73
2024/02/05 05:07:53;;;;;;;5.68;3.03;;;15.60;61.50;;;;;;5051020;28;20672;-75
2024/02/05 05:10:19;;;;;;;5.65;3.50;;;15.60;61.50;;;;;;5051355;28;20171;-75
2024/02/05 05:12:45;;;;;;;6.95;3.45;;;15.60;61.50;;;;;;5051592;28;20217;-74
2024/02/05 05:15:15;;;;;;;9.15;3.38;;;15.60;61.40;;;;;;5050829;28;20175;-74
2024/02/05 05:17:40;;;;;;;8.63;3.75;;;15.60;61.50;;;;;;5051546;28;20210;-74
2024/02/05 05:20:06;;;;;;;6.68;3.58;;;15.60;61.50;;;;;;5051005;28;20237;-74
2024/02/05 05:22:32;;;;;;;7.43;3.17;;;15.60;61.50;;;;;;5051226;28;20183;-74
2024/02/05 05:24:57;;;;;;;6.13;3.10;;;15.60;61.50;;;;;;5051594;28;20179;-76
2024/02/05 05:27:23;;;;;;;7.63;3.72;;;15.60;61.40;;;;;;5050519;28;20179;-73
2024/02/05 05:29:49;;;;;;;6.40;3.38;;;15.60;61.50;;;;;;5051402;28;20183;-73
2024/02/05 05:32:14;;;;;;;6.60;3.13;;;15.60;61.50;;;;;;5051272;28;20210;-73
2024/02/05 05:34:40;;;;;;;7.10;2.97;;;15.60;61.40;;;;;;5050508;28;20213;-72
2024/02/05 05:37:06;;;;;;;9.43;3.10;;;15.60;61.40;;;;;;5051321;28;20997;-75
2024/02/05 05:39:31;;;;;;;6.60;2.92;;;15.60;61.40;;;;;;5050933;28;20175;-72
2024/02/05 05:41:57;;;;;;;8.43;3.22;;;15.60;61.40;;;;;;5050614;28;20183;-73
2024/02/05 05:44:22;;;;;;;5.70;3.03;;;15.50;61.50;;;;;;5050920;28;20190;-73
2024/02/05 05:46:48;;;;;;;8.55;3.15;;;15.60;61.50;;;;;;5051408;28;20305;-74
2024/02/05 05:49:13;;;;;;;7.88;3.40;;;15.60;61.60;;;;;;5050655;28;20270;-74
2024/02/05 05:51:39;;;;;;;8.15;3.45;;;15.50;61.50;;;;;;5051274;28;20290;-74
2024/02/05 05:54:04;;;;;;;8.50;3.67;;;15.50;61.50;;;;;;5054932;28;20211;-76
2024/02/05 05:56:30;;;;;;;9.00;3.58;;;15.60;61.50;;;;;;5053553;28;20313;-73
2024/02/05 05:58:56;;;;;;;8.95;3.65;;;15.50;61.40;;;;;;5054751;28;20179;-75
2024/02/05 06:01:22;;;;;;;7.35;3.63;;;15.50;61.40;;;;;;5054292;28;20634;-74
2024/02/05 06:03:47;;;;;;;7.38;3.15;;;15.50;61.40;;;;;;5053915;28;20173;-74
2024/02/05 06:06:13;;;;;;;9.80;3.50;;;15.50;61.50;;;;;;5054837;28;20262;-76
2024/02/05 06:08:38;;;;;;;10.60;3.90;;;15.50;61.50;;;;;;5054296;28;20630;-77
2024/02/05 06:11:04;;;;;;;8.48;3.63;;;15.50;61.40;;;;;;5053832;28;20183;-76
2024/02/05 06:13:31;;;;;;;7.43;3.53;;;15.50;61.50;;;;;;5054131;28;20573;-74
2024/02/05 06:15:56;;;;;;;7.80;3.38;;;15.50;61.40;;;;;;5054611;28;20175;-76
2024/02/05 06:18:22;;;;;;;9.55;3.60;;;15.50;61.40;;;;;;5053237;28;20531;-74
2024/02/05 06:20:47;;;;;;;9.05;3.95;;;15.50;61.40;;;;;;5054449;28;20179;-75
2024/02/05 06:23:13;;;;;;;6.93;3.00;;;15.50;61.40;;;;;;5053658;28;20178;-76
2024/02/05 06:25:39;;;;;;;8.93;3.63;;;15.60;61.60;;;;;;5053959;28;20582;-75
2024/02/05 06:28:04;;;;;;;7.00;3.15;;;15.50;61.40;;;;;;5054110;28;20171;-75
2024/02/05 06:30:30;;;;;;;9.80;3.65;;;15.50;61.50;;;;;;5053391;28;20171;-73
2024/02/05 06:32:55;;;;;;;7.97;3.25;;;15.50;61.40;;;;;;5054178;28;20211;-73
2024/02/05 06:35:21;;;;;;;7.18;3.35;;;15.50;61.60;;;;;;5053342;28;20175;-72
2024/02/05 06:37:46;;;;;;;9.82;3.60;;;15.50;61.50;;;;;;5053467;28;20177;-74
2024/02/05 06:40:13;;;;;;;10.15;3.17;;;15.50;61.40;;;;;;5054033;28;20297;-74
2024/02/05 06:42:39;;;;;;;10.50;3.45;;;15.50;61.40;;;;;;5053597;28;20190;-73
2024/02/05 06:45:07;;;;;;;9.30;3.70;;;15.40;61.30;;;;;;5053517;28;20168;-73
2024/02/05 06:47:33;;;;;;;9.90;3.40;;;15.50;61.30;;;;;;5053500;28;20178;-73
2024/02/05 06:49:58;;;;;;;8.05;3.83;;;15.50;61.30;;;;;;5054086;28;20236;-75
2024/02/05 06:52:24;;;;;;;8.30;3.33;;;15.50;61.20;;;;;;5052810;28;20203;-74
2024/02/05 06:54:49;;;;;;;8.13;3.88;;;15.50;61.30;;;;;;5053736;28;20171;-74
2024/02/05 06:57:15;;;;;;;9.18;2.88;;;15.60;62.20;;;;;;5053469;28;20689;-74
2024/02/05 06:59:40;;;;;;;6.63;2.72;;;15.70;61.20;;;;;;5053083;28;20262;-73
2024/02/05 07:02:08;;;;;;;5.75;3.03;;;15.80;61.20;;;;;;5053691;28;20167;-74
2024/02/05 07:04:35;;;;;;;10.38;3.22;;;16.00;61.00;;;;;;5052351;28;20258;-74
2024/02/05 07:07:03;;;;;;;7.40;3.30;;;16.20;60.70;;;;;;5052883;28;20205;-76
2024/02/05 07:09:28;;;;;;;7.65;3.13;;;16.20;60.40;;;;;;5053152;28;20171;-76
2024/02/05 07:11:54;;;;;;;7.30;3.03;;;16.40;60.20;;;;;;5053083;28;20241;-76
2024/02/05 07:14:20;;;;;;;6.90;2.53;;;16.60;59.90;;;;;;5052525;28;20207;-74
2024/02/05 07:16:45;;;;;;;6.22;2.95;;;16.70;59.60;;;;;;5053547;28;20171;-74
2024/02/05 07:19:17;;;;;;;7.20;3.00;;;16.80;59.40;;;;;;5053306;28;20250;-74
2024/02/05 07:21:42;;;;;;;7.18;2.70;;;16.90;59.20;;;;;;5052630;28;20203;-74
2024/02/05 07:24:08;;;;;;;7.38;2.80;;;17.00;59.10;;;;;;5053227;28;20210;-75
2024/02/05 07:26:34;;;;;;;9.63;3.30;;;17.00;59.00;;;;;;5051891;28;20190;-73
2024/02/05 07:28:59;;;;;;;9.13;2.92;;;17.00;58.90;;;;;;5051663;28;20167;-74
2024/02/05 07:31:25;;;;;;;6.88;2.60;;;17.10;58.80;;;;;;5052585;28;20217;-73
2024/02/05 07:33:51;;;;;;;7.07;2.78;;;17.10;58.80;;;;;;5052284;28;20258;-72
2024/02/05 07:36:16;;;;;;;6.10;2.80;;;17.10;58.90;;;;;;5052776;28;20167;-72
2024/02/05 07:38:42;;;;;;;5.20;2.53;;;17.10;58.80;;;;;;5052818;28;20209;-73
2024/02/05 07:41:07;;;;;;;6.35;2.97;;;17.30;58.60;;;;;;5051972;28;20209;-74
2024/02/05 07:43:36;;;;;;;7.05;2.55;;;17.20;58.50;;;;;;5052375;28;20582;-73
2024/02/05 07:46:02;;;;;;;8.70;2.75;;;17.20;58.40;;;;;;5052735;28;20642;-73
2024/02/05 07:48:29;;;;;;;5.45;2.28;;;17.20;58.50;;;;;;5051862;28;20171;-73
2024/02/05 07:50:55;;;;;;;6.43;2.22;;;17.10;58.60;;;;;;5052789;28;20175;-75
2024/02/05 07:53:21;;;;;;;7.53;2.53;;;17.10;58.70;;;;;;5052178;28;20301;-73
2024/02/05 07:55:47;;;;;;;5.57;2.83;;;17.10;58.80;;;;;;5052139;28;20250;-73
2024/02/05 07:58:13;;;;;;;5.72;2.58;;;17.10;58.80;;;;;;5052366;28;20820;-74
2024/02/05 08:00:39;;;;;;;5.07;2.40;;;17.10;58.80;;;;;;5052364;28;20345;-74
2024/02/05 08:03:04;;;;;;;6.35;2.70;;;17.10;58.80;;;;;;5051661;28;20171;-76
2024/02/05 08:05:30;;;;;;;4.93;2.35;;;17.10;58.80;;;;;;5051848;28;20171;-72
2024/02/05 08:07:56;;;;;;;6.97;2.70;;;17.10;58.80;;;;;;5052216;28;20692;-75
2024/02/05 08:10:22;;;;;;;6.47;2.50;;;17.20;58.80;;;;;;5051230;28;20189;-76
2024/02/05 08:12:47;;;;;;;6.78;2.90;;;17.20;58.70;;;;;;5051480;28;20669;-74
2024/02/05 08:15:13;;;;;;;6.40;3.00;;;17.20;58.70;;;;;;5051898;28;20270;-73
2024/02/05 08:17:38;;;;;;;7.47;3.13;;;17.20;58.70;;;;;;5051153;28;20267;-73
2024/02/05 08:20:04;;;;;;;6.22;2.60;;;17.30;58.70;;;;;;5052337;28;20580;-73
2024/02/05 08:22:30;;;;;;;6.60;2.78;;;17.20;58.60;;;;;;5050370;28;20673;-74
2024/02/05 08:24:56;;;;;;;8.85;2.50;;;17.30;58.60;;;;;;5051418;28;20186;-77
2024/02/05 08:27:22;;;;;;;8.27;3.13;;;17.30;58.60;;;;;;5051679;28;20221;-73
2024/02/05 08:29:47;;;;;;;5.75;3.17;;;17.30;58.50;;;;;;5051569;28;20171;-71
2024/02/05 08:32:13;;;;;;;5.70;2.40;;;17.40;58.60;;;;;;5051760;28;20730;-71
2024/02/05 08:34:38;;;;;;;9.52;3.67;;;17.40;58.50;;;;;;5050478;28;20173;-71
2024/02/05 08:37:04;;;;;;;5.47;2.60;;;17.30;58.70;;;;;;5051232;28;20193;-73
2024/02/05 08:39:31;;;;;;;7.07;2.53;;;17.30;58.70;;;;;;5051480;28;20176;-73
2024/02/05 08:41:56;;;;;;;10.15;3.38;;;17.30;58.80;;;;;;5052172;28;20201;-73
2024/02/05 08:44:25;;;;;;;6.78;2.35;;;17.30;58.90;;;;;;5051048;28;20174;-72
2024/02/05 08:46:50;;;;;;;7.22;2.90;;;17.20;58.90;;;;;;5051941;28;20236;-72
2024/02/05 08:49:16;;;;;;;10.30;3.05;;;17.20;59.00;;;;;;5051782;28;20172;-71
2024/02/05 08:51:41;;;;;;;6.18;2.75;;;17.10;59.00;;;;;;5051131;28;20290;-71
2024/02/05 08:54:07;;;;;;;8.30;3.42;;;17.10;59.10;;;;;;5051848;28;20317;-71
2024/02/05 08:56:32;;;;;;;6.32;3.00;;;17.10;59.20;;;;;;5051309;28;20372;-71
2024/02/05 08:58:58;;;;;;;10.68;2.92;;;17.10;59.20;;;;;;5051319;28;20547;-71
2024/02/05 09:01:23;;;;;;;7.68;2.63;;;17.00;59.20;;;;;;5051415;28;20580;-71
2024/02/05 09:03:49;;;;;;;7.75;3.05;;;17.00;59.20;;;;;;5051831;28;20290;-71
2024/02/05 09:06:15;;;;;;;8.07;2.60;;;17.00;59.30;;;;;;5051010;28;20569;-71
2024/02/05 09:08:40;;;;;;;9.05;3.20;;;17.00;59.40;;;;;;5051567;28;20210;-71
2024/02/05 09:11:07;;;;;;;5.78;3.05;;;16.90;59.40;;;;;;5051747;28;20167;-71
2024/02/05 09:13:33;;;;;;;6.68;2.85;;;16.80;59.50;;;;;;5049577;28;20230;-71
2024/02/05 09:15:58;;;;;;;8.63;3.75;;;16.80;59.50;;;;;;5051537;28;20168;-71
2024/02/05 09:18:24;;;;;;;7.65;2.90;;;16.80;59.60;;;;;;5051376;28;20190;-71
2024/02/05 09:20:50;;;;;;;7.82;3.10;;;16.90;59.60;;;;;;5050828;28;20258;-70
2024/02/05 09:23:16;;;;;;;6.35;2.60;;;16.80;59.60;;;;;;5051272;28;20681;-70
2024/02/05 09:25:42;;;;;;;7.45;2.65;;;16.90;59.50;;;;;;5051751;28;20201;-69
2024/02/05 09:28:10;;;;;;;9.52;3.30;;;16.90;59.50;;;;;;5053579;28;20641;-69
2024/02/05 09:30:38;;;;;;;6.80;2.80;;;16.80;59.50;;;;;;5055131;28;20210;-70
2024/02/05 09:33:04;;;;;;;8.25;3.20;;;16.80;59.50;;;;;;5055152;28;20215;-72
2024/02/05 09:35:30;;;;;;;7.60;3.20;;;16.80;59.50;;;;;;5054579;28;20279;-72
2024/02/05 09:37:55;;;;;;;8.38;2.97;;;16.80;59.50;;;;;;5055411;28;20611;-72
2024/02/05 09:40:21;;;;;;;7.20;2.80;;;16.70;59.50;;;;;;5054119;28;20696;-73
2024/02/05 09:42:46;;;;;;;6.85;3.00;;;16.70;59.50;;;;;;5054075;28;20282;-73
2024/02/05 09:45:12;;;;;;;6.40;3.20;;;16.70;59.60;;;;;;5055306;28;20167;-71
2024/02/05 09:47:39;;;;;;;9.65;3.38;;;16.70;59.60;;;;;;5054130;28;20546;-72
2024/02/05 09:50:06;;;;;;;8.27;3.35;;;16.70;59.60;;;;;;5055026;28;20171;-71
2024/02/05 09:52:32;;;;;;;9.40;3.58;;;16.70;59.50;;;;;;5054557;28;20246;-71
2024/02/05 09:54:57;;;;;;;7.32;3.22;;;16.70;59.50;;;;;;5054447;28;20203;-71
2024/02/05 09:57:24;;;;;;;7.90;3.28;;;16.70;59.40;;;;;;5053237;28;20945;-71
2024/02/05 09:59:54;;;;;;;7.55;3.70;;;16.70;59.40;;;;;;5055000;28;20168;-71
2024/02/05 10:02:19;;;;;;;7.43;3.42;;;16.70;59.50;;;;;;5053902;28;20266;-71
2024/02/05 10:04:45;;;;;;;6.82;3.05;;;16.60;59.40;;;;;;5053616;28;20293;-70
2024/02/05 10:07:15;;;;;;;13.95;3.88;;;16.60;59.40;;;;;;5053650;28;20250;-71
2024/02/05 10:09:40;;;;;;;8.65;3.53;;;16.60;59.40;;;;;;5053901;28;20179;-71
2024/02/05 10:12:11;;;;;;;6.78;3.65;;;16.60;59.40;;;;;;5053319;28;20328;-70
2024/02/05 10:14:37;;;;;;;5.45;3.40;;;16.60;59.40;;;;;;5053048;28;20262;-70
2024/02/05 10:17:03;;;;;;;6.80;3.03;;;16.60;59.40;;;;;;5052729;28;20182;-71
2024/02/05 10:19:29;;;;;;;8.55;3.95;;;16.60;59.40;;;;;;5054011;28;20175;-70
2024/02/05 10:21:56;;;;;;;9.13;3.28;;;16.60;59.40;;;;;;5054573;28;20197;-70
2024/02/05 10:24:22;;;;;;;12.35;4.13;;;16.60;59.30;;;;;;5053462;28;20175;-69
2024/02/05 10:26:47;;;;;;;7.88;3.30;;;16.70;59.30;;;;;;5054418;28;20185;-69
2024/02/05 10:29:13;;;;;;;8.55;4.07;;;16.60;59.30;;;;;;5054218;28;20175;-69
2024/02/05 10:31:49;;;;;;;8.98;3.85;;;16.60;59.30;;;;;;5053249;28;20193;-70
2024/02/05 10:34:19;;;;;;;6.88;3.38;;;16.60;59.30;;;;;;5054407;28;20194;-72
2024/02/05 10:36:44;;;;;;;8.27;3.55;;;16.60;59.40;;;;;;5053525;28;20280;-72
2024/02/05 10:39:16;;;;;;;9.70;4.13;;;16.60;59.40;;;;;;5054101;28;20579;-72
2024/02/05 10:41:41;;;;;;;7.95;4.35;;;16.60;59.40;;;;;;5052397;28;20668;-70
2024/02/05 10:44:07;;;;;;;11.48;4.03;;;16.60;59.50;;;;;;5053239;28;20175;-74
2024/02/05 10:46:33;;;;;;;7.97;3.75;;;16.50;59.40;;;;;;5053551;28;20178;-70
2024/02/05 10:48:59;;;;;;;10.77;4.05;;;16.60;59.50;;;;;;5054005;28;20172;-71
2024/02/05 10:51:26;;;;;;;7.72;3.45;;;16.50;59.40;;;;;;5052721;28;20262;-73
2024/02/05 10:53:51;;;;;;;9.30;3.75;;;16.50;59.40;;;;;;5053864;28;20187;-73
2024/02/05 10:56:17;;;;;;;12.32;4.10;;;16.60;59.40;;;;;;5051829;28;20523;-72
2024/02/05 10:58:43;;;;;;;11.10;3.22;;;16.60;59.40;;;;;;5050594;28;20230;-72
2024/02/05 11:01:09;;;;;;;6.53;3.35;;;16.70;59.40;;;;;;5052077;28;20270;-73
2024/02/05 11:03:37;;;;;;;6.47;2.80;;;16.90;59.30;;;;;;5051600;28;20258;-72
2024/02/05 11:06:03;;;;;;;8.05;3.58;;;17.00;59.10;;;;;;5051418;28;20217;-71
2024/02/05 11:08:29;;;;;;;7.38;3.45;;;17.20;58.90;;;;;;5052015;28;20209;-72
2024/02/05 11:10:55;;;;;;;8.05;3.35;;;17.40;58.60;;;;;;5053488;28;20171;-71
2024/02/05 11:13:44;;;;;;;7.07;2.55;;;17.70;58.30;;;;;;5051107;28;20226;-72
2024/02/05 11:16:09;;;;;;;7.80;2.90;;;17.90;57.80;;;;;;5053412;28;20175;-72
2024/02/05 11:18:42;;;;;;;7.50;3.20;;;18.20;57.40;;;;;;5051707;28;20535;-74
2024/02/05 11:21:08;;;;;;;6.72;3.08;;;18.30;57.10;;;;;;5053372;28;20594;-74
2024/02/05 11:23:34;;;;;;;7.32;3.30;;;18.40;56.90;;;;;;5054546;28;20638;-74
2024/02/05 11:25:59;;;;;;;5.47;2.80;;;18.50;56.90;;;;;;5052389;28;20178;-69
2024/02/05 11:28:25;;;;;;;7.00;3.15;;;18.40;56.80;;;;;;5052665;28;20183;-69
2024/02/05 11:30:51;;;;;;;5.60;2.72;;;18.60;56.70;;;;;;5052683;28;20181;-70
2024/02/05 11:33:26;;;;;;;10.25;3.67;;;18.70;56.50;;;;;;5052963;28;20215;-71
2024/02/05 11:35:56;;;;;;;6.28;3.00;;;18.70;56.20;;;;;;5053780;28;20163;-72
2024/02/05 11:38:25;;;;;;;9.68;3.30;;;18.80;56.10;;;;;;5052653;28;20183;-71
2024/02/05 11:40:51;;;;;;;8.80;2.92;;;18.80;56.00;;;;;;5051220;28;20708;-72
2024/02/05 11:43:24;;;;;;;11.30;3.33;;;18.80;56.00;;;;;;5052733;28;20183;-70
2024/02/05 11:45:51;;;;;;;11.35;3.10;;;18.80;56.00;;;;;;5052908;28;20266;-71
2024/02/05 11:48:17;;;;;;;9.32;2.75;;;18.80;56.10;;;;;;5052054;28;20176;-69
2024/02/05 11:50:43;;;;;;;9.40;3.25;;;18.80;56.20;;;;;;5052213;28;20198;-71
2024/02/05 11:53:08;;;;;;;7.35;2.72;;;18.70;56.20;;;;;;5052506;28;20674;-70
2024/02/05 11:55:36;;;;;;;7.97;2.85;;;18.90;56.20;;;;;;5051397;28;20601;-71
2024/02/05 11:58:01;;;;;;;6.40;2.70;;;18.90;56.20;;;;;;5052410;28;20262;-70
2024/02/05 12:00:27;;;;;;;8.45;2.60;;;18.90;56.20;;;;;;5052338;28;20646;-70
2024/02/05 12:02:52;;;;;;;5.47;2.67;;;18.90;56.10;;;;;;5050355;28;20646;-70
2024/02/05 12:05:19;;;;;;;11.77;2.78;;;19.00;56.10;;;;;;5052066;28;20167;-69
2024/02/05 12:07:45;;;;;;;7.60;2.90;;;19.00;55.90;;;;;;5052271;28;20715;-70
2024/02/05 12:10:10;;;;;;;7.28;3.28;;;19.00;56.00;;;;;;5050532;28;20195;-72
2024/02/05 12:12:36;;;;;;;9.52;3.15;;;19.20;55.90;;;;;;5050964;28;20219;-73
2024/02/05 12:15:04;;;;;;;6.03;2.88;;;19.20;55.90;;;;;;5050320;28;20205;-73
2024/02/05 12:17:31;;;;;;;5.40;2.33;;;19.20;55.90;;;;;;5050721;28;20175;-69
2024/02/05 12:20:00;;;;;;;5.82;2.60;;;19.20;56.00;;;;;;5051476;28;20187;-71
2024/02/05 12:22:28;;;;;;;6.70;2.75;;;19.30;55.80;;;;;;5051045;28;20179;-73
2024/02/05 12:24:54;;;;;;;10.35;3.30;;;19.30;55.80;;;;;;5051155;28;20270;-72
2024/02/05 12:27:21;;;;;;;8.40;2.85;;;19.40;55.70;;;;;;5050659;28;20258;-69
2024/02/05 12:29:46;;;;;;;8.48;2.83;;;19.40;55.70;;;;;;5050267;28;20182;-71
2024/02/05 12:32:12;;;;;;;8.40;2.50;;;19.30;55.70;;;;;;5052261;28;20211;-71
2024/02/05 12:34:38;;;;;;;8.55;2.75;;;19.40;55.60;;;;;;5051535;28;20509;-71
2024/02/05 12:37:05;;;;;;;5.78;2.78;;;19.60;55.50;;;;;;5051150;28;20638;-72
2024/02/05 12:39:30;;;;;;;8.18;3.08;;;19.60;55.20;;;;;;5050717;28;20175;-73